EBBR

Brussels Airport

Brussels, Belgium
METAR EBBR 170320Z 29003KT 8000 RA SCT005 BKN020 15/14 Q1017 NOSIG
Observed Flight Rules
Aug-17 @ 03:20 UTC (40 minutes ago) Marginal Visual Flight Rules
Wind Visibility Clouds Conditions
290° at 3 knots 7,998 meters
  • Scattered at 500' AGL
  • Broken at 2,000' AGL
  • Rain
Temperatures Readings
Current 15°C / 59°F
Dewpoint 14°C / 57°F
Humidity 94%
Altimeter 30.03" Hg
Pressure 1017 hPa
Elevation 58
METAR EBBR 170320Z 29003KT 8000 RA SCT005 BKN020 15/14 Q1017 NOSIG
Observed Flight Rules
Aug-17 @ 03:20 UTC
(40 minutes ago)
MVFR
Wind Visibility
290° at 3 knots 7,998 meters
Clouds
  • Scattered at 500' AGL
  • Broken at 2,000' AGL
Conditions
  • Rain
Temperature Dewpoint
15°C / 59°F 14°C / 57°F
Humidity Altimeter Pressure
94% 30.03" Hg 1017 hPa